Brande, Denmark
Current Conditions -  °F | °C
As of 3:20 PM on Friday 24 Oct 2014 (Local Time) from EKBI Reporting Station
Light Rain Light Rain  
Wind Chill: 52°   Ceiling: 600
Heat Index: 52°   Visibility: 1.8mi
Dew Point: 52°   Wind: 12mph
Humidity: 100%   Direction: 170°S
Pressure: 30"   Gusts: NA
Location:  55.94°N, 9.13°E
Report Text: EKBI 241320Z 17010KT 3000 -DZRA SCT004 BKN006 11/11 Q1016
Loading
Personal Weather Stations






























Interactive Weather Map
Tropical Storm Tracking
New forecast layout! Learn more

10-Day Weather Forecast

Advertisements
Track Severe Weather on mobile